Time;durP1;ratioP1;P1;durP2;ratioP2;P2;SDS_P1;SDS_P2;PMS_P1;PMS_P2;Temp;Humidity;BMP_temperature;BMP_pressure;BME280_temperature;BME280_humidity;BME280_pressure;Samples;Min_cycle;Max_cycle;Signal;HPM_P1;HPM_P2
2024/01/04 00:00:50;;;;;;;0.22;0.22;;;;;;;10.75;62.07;98436.66;4449253;32;33125;-80
2024/01/04 00:03:22;;;;;;;0.08;0.00;;;;;;;11.03;61.12;98435.66;4469117;32;33456;-82
2024/01/04 00:05:50;;;;;;;0.82;0.57;;;;;;;10.79;61.68;98444.38;4460315;32;32491;-81
2024/01/04 00:08:17;;;;;;;0.30;0.30;;;;;;;10.84;61.92;98448.41;4460137;32;32719;-82
2024/01/04 00:10:45;;;;;;;0.10;0.10;;;;;;;10.60;62.74;98450.00;4436854;32;33316;-82
2024/01/04 00:13:13;;;;;;;0.00;0.00;;;;;;;10.80;61.50;98440.78;4437977;32;32416;-82
2024/01/04 00:15:41;;;;;;;0.00;0.00;;;;;;;10.80;61.45;98435.50;4447607;32;33334;-82
2024/01/04 00:18:09;;;;;;;0.13;0.13;;;;;;;10.97;61.09;98449.28;4461401;32;33901;-82
2024/01/04 00:20:37;;;;;;;2.28;1.10;;;;;;;10.93;61.04;98434.59;4446596;32;33103;-81
2024/01/04 00:23:05;;;;;;;0.52;0.40;;;;;;;10.65;61.84;98432.94;4447289;32;33119;-81
2024/01/04 00:25:32;;;;;;;0.00;0.00;;;;;;;10.97;61.03;98444.00;4434532;32;33152;-81
2024/01/04 00:28:00;;;;;;;0.10;0.10;;;;;;;10.72;61.91;98434.19;4447680;32;32806;-81
2024/01/04 00:30:28;;;;;;;0.00;0.00;;;;;;;10.77;61.73;98436.53;4452688;32;33375;-80
2024/01/04 00:32:55;;;;;;;0.90;0.40;;;;;;;10.68;61.86;98442.41;4460496;32;34145;-81
2024/01/04 00:35:23;;;;;;;0.20;0.20;;;;;;;10.72;61.90;98436.00;4454921;32;33501;-81
2024/01/04 00:37:52;;;;;;;2.05;0.47;;;;;;;10.54;62.48;98455.66;4473961;32;33882;-81
2024/01/04 00:40:19;;;;;;;0.10;0.10;;;;;;;10.66;62.25;98449.59;4448371;32;33653;-81
2024/01/04 00:42:47;;;;;;;0.00;0.00;;;;;;;10.53;63.02;98449.53;4449028;32;32087;-81
2024/01/04 00:45:15;;;;;;;0.10;0.10;;;;;;;10.95;61.82;98450.31;4459699;32;33202;-81
2024/01/04 00:47:42;;;;;;;0.00;0.00;;;;;;;10.98;61.42;98437.75;4448179;32;33548;-81
2024/01/04 00:50:10;;;;;;;0.10;0.10;;;;;;;10.70;62.39;98443.19;4449240;32;34510;-82
2024/01/04 00:52:38;;;;;;;1.08;0.40;;;;;;;10.86;61.94;98435.09;4450493;32;32788;-82
2024/01/04 00:55:08;;;;;;;0.00;0.00;;;;;;;11.34;59.97;98433.56;4462438;32;32725;-81
2024/01/04 00:57:35;;;;;;;0.68;0.68;;;;;;;11.39;59.92;98438.53;4453017;32;33908;-81
2024/01/04 01:00:03;;;;;;;0.25;0.25;;;;;;;11.23;60.23;98444.88;4445102;32;33569;-81
2024/01/04 01:02:31;;;;;;;0.30;0.30;;;;;;;11.16;60.17;98433.03;4461810;32;34319;-82
2024/01/04 01:04:59;;;;;;;0.62;0.62;;;;;;;11.13;60.86;98441.16;4438768;32;32743;-82
2024/01/04 01:07:28;;;;;;;0.00;0.00;;;;;;;11.74;58.83;98425.53;4450363;32;34749;-82
2024/01/04 01:09:55;;;;;;;1.87;0.52;;;;;;;11.87;58.35;98433.44;4461175;32;33547;-82
2024/01/04 01:12:23;;;;;;;0.22;0.22;;;;;;;11.69;58.54;98425.00;4447024;32;33340;-81
2024/01/04 01:14:51;;;;;;;0.20;0.20;;;;;;;11.78;58.34;98422.56;4448186;32;34165;-81
2024/01/04 01:17:19;;;;;;;0.70;0.30;;;;;;;11.39;59.43;98418.22;4450087;32;34159;-81
2024/01/04 01:19:46;;;;;;;0.00;0.00;;;;;;;11.21;60.37;98395.75;4466865;32;32749;-81
2024/01/04 01:22:14;;;;;;;5.28;1.25;;;;;;;11.03;61.10;98396.03;4453972;32;33251;-82
2024/01/04 01:24:42;;;;;;;0.00;0.00;;;;;;;11.02;61.15;98396.16;4450091;32;34435;-81
2024/01/04 01:27:09;;;;;;;0.10;0.10;;;;;;;11.02;61.08;98393.50;4449036;32;33017;-81
2024/01/04 01:29:37;;;;;;;0.00;0.00;;;;;;;10.94;61.12;98380.81;4445671;32;33487;-81
2024/01/04 01:32:05;;;;;;;0.65;0.43;;;;;;;10.94;60.91;98391.38;4436506;32;32667;-81
2024/01/04 01:34:32;;;;;;;0.45;0.45;;;;;;;10.71;62.05;98397.34;4445474;32;32602;-82
2024/01/04 01:37:01;;;;;;;0.05;0.05;;;;;;;10.93;61.19;98402.06;4451922;32;33654;-81
2024/01/04 01:39:28;;;;;;;2.05;0.75;;;;;;;11.29;59.93;98385.47;4451981;32;33032;-81
2024/01/04 01:41:56;;;;;;;0.30;0.30;;;;;;;11.54;59.12;98387.28;4461655;32;33512;-81
2024/01/04 01:44:25;;;;;;;0.35;0.35;;;;;;;11.33;59.60;98392.22;4463025;32;33891;-81
2024/01/04 01:46:52;;;;;;;0.25;0.25;;;;;;;11.32;59.57;98403.75;4438611;32;34248;-81
2024/01/04 01:49:20;;;;;;;1.00;0.52;;;;;;;10.89;61.13;98413.75;4460484;32;34027;-81
2024/01/04 01:51:48;;;;;;;1.45;0.68;;;;;;;10.76;61.48;98429.56;4446910;32;34034;-81
2024/01/04 01:54:16;;;;;;;0.35;0.35;;;;;;;10.82;61.50;98417.75;4445828;32;32965;-81
2024/01/04 01:56:44;;;;;;;0.00;0.00;;;;;;;11.01;60.49;98413.78;4466579;32;33726;-80
2024/01/04 01:59:12;;;;;;;0.25;0.25;;;;;;;11.14;60.20;98412.94;4448620;32;33654;-81
2024/01/04 02:01:51;;;;;;;0.00;0.00;;;;;;;11.41;59.47;98404.94;4448583;32;32626;-83
2024/01/04 02:04:19;;;;;;;3.45;1.58;;;;;;;11.38;59.24;98400.69;4445669;32;32888;-81
2024/01/04 02:06:46;;;;;;;0.00;0.00;;;;;;;11.43;59.51;98410.94;4446536;32;33818;-81
2024/01/04 02:09:14;;;;;;;0.00;0.00;;;;;;;11.20;59.91;98401.94;4434790;32;33788;-81
2024/01/04 02:11:43;;;;;;;0.13;0.13;;;;;;;11.34;59.64;98404.50;4447547;32;32663;-81
2024/01/04 02:14:10;;;;;;;0.10;0.10;;;;;;;11.26;59.79;98401.56;4448080;32;33215;-81
2024/01/04 02:16:39;;;;;;;0.00;0.00;;;;;;;11.03;60.48;98401.31;4461847;32;34147;-81
2024/01/04 02:19:08;;;;;;;6.85;1.12;;;;;;;10.98;60.90;98407.87;4433243;32;34643;-81
2024/01/04 02:21:37;;;;;;;0.00;0.00;;;;;;;11.01;60.47;98407.63;4461063;32;33993;-81
2024/01/04 02:24:05;;;;;;;0.43;0.37;;;;;;;11.13;60.07;98411.25;4460484;32;33221;-83
2024/01/04 02:26:33;;;;;;;0.45;0.45;;;;;;;11.42;59.44;98412.75;4447116;32;33272;-83
2024/01/04 02:29:01;;;;;;;0.20;0.20;;;;;;;11.28;59.85;98408.41;4461805;32;34550;-82
2024/01/04 02:31:28;;;;;;;0.05;0.05;;;;;;;11.49;58.83;98403.44;4462380;32;33754;-83
2024/01/04 02:33:56;;;;;;;0.10;0.10;;;;;;;11.11;59.52;98392.87;4461997;32;33816;-82
2024/01/04 02:36:25;;;;;;;0.57;0.57;;;;;;;10.93;60.29;98387.06;4450747;32;34003;-83
2024/01/04 02:38:52;;;;;;;0.00;0.00;;;;;;;10.91;60.69;98396.00;4447753;32;33790;-83
2024/01/04 02:41:20;;;;;;;0.10;0.10;;;;;;;11.01;60.29;98395.31;4452691;32;33232;-83
2024/01/04 02:43:49;;;;;;;0.50;0.50;;;;;;;11.19;60.17;98394.97;4449450;32;33834;-83
2024/01/04 02:46:16;;;;;;;0.00;0.00;;;;;;;11.10;60.28;98411.47;4448264;32;33296;-83
2024/01/04 02:48:44;;;;;;;0.00;0.00;;;;;;;11.39;59.49;98417.38;4451042;32;34146;-83
2024/01/04 02:51:12;;;;;;;0.57;0.45;;;;;;;11.20;59.74;98418.69;4447824;32;34219;-82
2024/01/04 02:53:39;;;;;;;0.20;0.20;;;;;;;11.00;60.52;98421.81;4463024;32;34095;-83
2024/01/04 02:56:07;;;;;;;0.30;0.15;;;;;;;11.08;60.32;98418.66;4448527;32;33946;-83
2024/01/04 02:58:35;;;;;;;0.15;0.15;;;;;;;11.15;59.89;98431.31;4453796;32;32638;-80
2024/01/04 03:01:03;;;;;;;5.12;0.73;;;;;;;10.95;60.46;98432.66;4468926;32;33076;-80
2024/01/04 03:03:30;;;;;;;26.23;0.80;;;;;;;10.95;60.45;98426.53;4451969;32;34122;-80
2024/01/04 03:05:58;;;;;;;0.28;0.22;;;;;;;11.18;59.56;98425.84;4463324;32;33375;-81
2024/01/04 03:08:26;;;;;;;0.35;0.35;;;;;;;10.96;59.84;98434.34;4469625;32;34574;-81
2024/01/04 03:10:53;;;;;;;0.00;0.00;;;;;;;10.93;59.91;98421.38;4450685;32;33586;-80
2024/01/04 03:13:21;;;;;;;0.00;0.00;;;;;;;10.50;61.18;98413.66;4461810;32;34485;-81
2024/01/04 03:15:49;;;;;;;0.25;0.25;;;;;;;10.58;60.62;98425.50;4449390;32;34080;-81
2024/01/04 03:18:17;;;;;;;0.37;0.37;;;;;;;10.78;60.40;98422.41;4461809;32;33510;-81
2024/01/04 03:20:45;;;;;;;1.37;0.75;;;;;;;10.68;60.43;98416.03;4469500;32;32949;-81
2024/01/04 03:23:13;;;;;;;0.00;0.00;;;;;;;10.66;60.58;98412.66;4449779;32;34382;-81
2024/01/04 03:25:40;;;;;;;0.73;0.70;;;;;;;10.61;60.51;98405.03;4449095;32;34070;-81
2024/01/04 03:28:08;;;;;;;1.08;0.30;;;;;;;10.54;60.72;98416.09;4449563;32;33685;-81
2024/01/04 03:30:36;;;;;;;0.10;0.10;;;;;;;10.45;60.58;98405.19;4447934;32;33523;-81
2024/01/04 03:33:04;;;;;;;0.20;0.20;;;;;;;10.51;60.68;98410.06;4438542;32;32936;-80
2024/01/04 03:35:32;;;;;;;0.00;0.00;;;;;;;10.59;60.18;98404.31;4448315;32;34075;-80
2024/01/04 03:37:59;;;;;;;1.02;1.00;;;;;;;10.62;60.23;98401.44;4441589;32;32483;-80
2024/01/04 03:40:27;;;;;;;0.10;0.10;;;;;;;10.63;59.69;98402.28;4447980;32;33659;-81
2024/01/04 03:42:55;;;;;;;3.17;1.35;;;;;;;10.50;59.99;98404.91;4466236;32;34006;-80
2024/01/04 03:45:22;;;;;;;0.03;0.03;;;;;;;10.39;60.77;98421.41;4449148;32;34454;-80
2024/01/04 03:47:50;;;;;;;2.53;0.30;;;;;;;10.19;60.98;98400.72;4459878;32;31939;-80
2024/01/04 03:50:18;;;;;;;0.10;0.10;;;;;;;10.29;61.19;98409.75;4469658;32;33698;-80
2024/01/04 03:52:46;;;;;;;0.15;0.15;;;;;;;10.16;61.63;98403.56;4433369;32;33314;-80
2024/01/04 03:55:15;;;;;;;0.10;0.10;;;;;;;10.14;61.54;98402.81;4442379;32;32983;-80
2024/01/04 03:57:43;;;;;;;3.50;2.62;;;;;;;10.02;62.11;98393.91;4451193;32;34254;-80
2024/01/04 04:00:12;;;;;;;0.30;0.30;;;;;;;10.15;61.40;98386.03;4465900;32;33571;-80
2024/01/04 04:02:40;;;;;;;0.40;0.40;;;;;;;9.98;62.18;98384.50;4448243;32;33192;-81
2024/01/04 04:05:08;;;;;;;3.10;1.40;;;;;;;9.98;62.08;98390.63;4452571;32;34606;-80
2024/01/04 04:07:35;;;;;;;0.00;0.00;;;;;;;9.96;62.23;98379.31;4452042;32;31938;-80
2024/01/04 04:10:04;;;;;;;0.00;0.00;;;;;;;10.29;61.12;98377.25;4461401;32;33262;-82
2024/01/04 04:12:31;;;;;;;0.05;0.05;;;;;;;10.09;61.80;98397.00;4441598;32;32348;-82
2024/01/04 04:14:59;;;;;;;0.32;0.32;;;;;;;9.85;62.65;98394.97;4462568;32;33593;-82
2024/01/04 04:17:30;;;;;;;0.47;0.30;;;;;;;10.07;62.26;98406.81;4438016;32;32885;-82
2024/01/04 04:19:58;;;;;;;0.22;0.22;;;;;;;10.42;60.88;98404.56;4449020;32;32518;-82
2024/01/04 04:22:26;;;;;;;0.65;0.65;;;;;;;10.20;61.27;98415.59;4451568;32;33614;-82
2024/01/04 04:24:53;;;;;;;0.10;0.10;;;;;;;9.99;62.15;98416.03;4448553;32;34481;-80
2024/01/04 04:27:21;;;;;;;0.20;0.20;;;;;;;9.81;62.62;98414.56;4451064;32;34483;-81
2024/01/04 04:29:49;;;;;;;5.57;0.98;;;;;;;9.44;63.99;98422.09;4461933;32;33717;-81
2024/01/04 04:32:18;;;;;;;0.13;0.13;;;;;;;9.64;63.66;98430.59;4461018;32;33971;-82
2024/01/04 04:34:45;;;;;;;1.85;0.77;;;;;;;9.62;64.10;98435.09;4450588;32;34710;-82
2024/01/04 04:37:14;;;;;;;2.00;1.30;;;;;;;9.78;63.71;98438.50;4448337;32;33118;-82
2024/01/04 04:39:42;;;;;;;0.05;0.05;;;;;;;9.83;63.27;98432.94;4437800;32;32448;-82
2024/01/04 04:42:10;;;;;;;0.60;0.60;;;;;;;9.80;63.48;98427.84;4460740;32;33873;-81
2024/01/04 04:44:37;;;;;;;0.00;0.00;;;;;;;9.96;63.05;98428.56;4459579;32;34734;-82
2024/01/04 04:47:05;;;;;;;2.55;1.50;;;;;;;9.85;62.97;98413.41;4448064;32;32800;-82
2024/01/04 04:49:33;;;;;;;0.30;0.30;;;;;;;9.68;63.82;98426.78;4446043;32;31922;-82
2024/01/04 04:52:02;;;;;;;0.43;0.43;;;;;;;9.53;64.66;98425.09;4446606;32;34304;-82
2024/01/04 04:54:29;;;;;;;1.05;1.02;;;;;;;9.86;63.40;98417.75;4467741;32;34716;-81
2024/01/04 04:56:57;;;;;;;1.67;0.75;;;;;;;10.14;62.04;98411.56;4434938;32;32808;-81
2024/01/04 04:59:25;;;;;;;0.00;0.00;;;;;;;9.88;62.72;98409.75;4435142;32;32347;-81
2024/01/04 05:01:53;;;;;;;1.35;1.25;;;;;;;9.82;62.97;98415.41;4449232;32;33652;-82
2024/01/04 05:04:21;;;;;;;0.32;0.32;;;;;;;9.86;62.72;98415.09;4448745;32;33731;-82
2024/01/04 05:06:50;;;;;;;0.10;0.10;;;;;;;9.99;62.35;98407.28;4450348;32;34094;-82
2024/01/04 05:09:18;;;;;;;0.00;0.00;;;;;;;9.92;62.82;98405.97;4460907;32;32899;-82
2024/01/04 05:11:46;;;;;;;0.22;0.22;;;;;;;9.85;63.00;98410.78;4448151;32;34113;-81
2024/01/04 05:14:13;;;;;;;0.00;0.00;;;;;;;9.88;62.88;98413.25;4448401;32;34418;-82
2024/01/04 05:16:43;;;;;;;0.82;0.28;;;;;;;9.90;62.72;98413.97;4440192;32;33873;-82
2024/01/04 05:19:10;;;;;;;0.40;0.40;;;;;;;9.81;62.92;98414.56;4470005;32;33390;-81
2024/01/04 05:21:38;;;;;;;0.00;0.00;;;;;;;10.06;61.83;98413.84;4450158;32;35678;-81
2024/01/04 05:24:06;;;;;;;0.85;0.55;;;;;;;9.85;62.25;98421.34;4459761;32;33941;-81
2024/01/04 05:26:34;;;;;;;0.10;0.10;;;;;;;9.71;63.25;98423.97;4436536;32;32777;-81
2024/01/04 05:29:02;;;;;;;0.10;0.10;;;;;;;9.68;62.95;98418.88;4441863;32;33477;-81
2024/01/04 05:31:30;;;;;;;0.08;0.08;;;;;;;9.57;63.51;98421.34;4435271;32;33549;-82
2024/01/04 05:33:58;;;;;;;1.17;0.50;;;;;;;9.48;64.03;98413.06;4464097;32;33834;-81
2024/01/04 05:36:25;;;;;;;0.00;0.00;;;;;;;9.48;64.42;98426.22;4447799;32;33924;-81
2024/01/04 05:38:53;;;;;;;2.55;0.85;;;;;;;9.19;65.31;98438.53;4450882;32;32937;-81
2024/01/04 05:41:21;;;;;;;0.20;0.20;;;;;;;9.20;65.83;98431.47;4453518;32;33214;-81
2024/01/04 05:43:49;;;;;;;1.65;0.55;;;;;;;9.12;66.23;98439.84;4437565;32;32771;-81
2024/01/04 05:46:17;;;;;;;0.20;0.20;;;;;;;9.16;66.44;98445.75;4440263;32;33482;-81
2024/01/04 05:48:44;;;;;;;0.10;0.10;;;;;;;9.33;65.84;98442.12;4439943;32;33391;-82
2024/01/04 05:51:12;;;;;;;0.35;0.35;;;;;;;9.59;65.15;98445.81;4439163;32;32398;-81
2024/01/04 05:53:40;;;;;;;1.85;0.80;;;;;;;9.77;64.34;98449.94;4445992;32;35271;-81
2024/01/04 05:56:08;;;;;;;3.85;1.10;;;;;;;9.87;63.60;98453.69;4439012;32;33306;-81
2024/01/04 05:58:35;;;;;;;0.20;0.20;;;;;;;9.96;63.72;98450.50;4454296;32;32154;-81
2024/01/04 06:01:03;;;;;;;0.60;0.60;;;;;;;10.37;62.29;98454.97;4463189;32;37207;-81
2024/01/04 06:03:31;;;;;;;3.65;1.95;;;;;;;9.86;63.51;98459.94;4452482;32;32977;-81
2024/01/04 06:05:59;;;;;;;1.52;1.15;;;;;;;9.75;63.52;98447.41;4440923;32;33274;-81
2024/01/04 06:08:28;;;;;;;1.08;0.20;;;;;;;9.72;63.64;98460.78;4464737;32;34084;-81
2024/01/04 06:10:55;;;;;;;0.35;0.35;;;;;;;9.88;63.07;98455.44;4442078;32;32566;-81
2024/01/04 06:13:26;;;;;;;0.50;0.50;;;;;;;9.90;62.78;98466.72;4465173;32;34654;-81
2024/01/04 06:15:54;;;;;;;0.37;0.37;;;;;;;10.22;61.72;98455.94;4467687;32;32810;-81
2024/01/04 06:18:22;;;;;;;1.17;0.95;;;;;;;10.31;61.09;98457.19;4444567;32;34219;-81
2024/01/04 06:20:49;;;;;;;0.55;0.55;;;;;;;10.64;59.89;98462.06;4480626;31;32733;-81
2024/01/04 06:23:17;;;;;;;1.52;0.98;;;;;;;10.51;59.77;98460.22;4465681;32;35951;-81
2024/01/04 06:25:45;;;;;;;0.25;0.25;;;;;;;10.48;59.26;98465.69;4458015;32;33166;-81
2024/01/04 06:28:13;;;;;;;0.00;0.00;;;;;;;10.49;59.32;98469.16;4452274;32;33226;-81
2024/01/04 06:30:41;;;;;;;0.57;0.55;;;;;;;10.52;58.78;98469.81;4466718;32;33872;-81
2024/01/04 06:33:09;;;;;;;0.00;0.00;;;;;;;10.79;57.23;98463.69;4457890;32;32541;-81
2024/01/04 06:35:36;;;;;;;0.30;0.30;;;;;;;10.82;57.11;98460.84;4475182;32;33918;-81
2024/01/04 06:38:08;;;;;;;0.20;0.20;;;;;;;10.70;56.93;98464.31;4450020;32;32578;-81
2024/01/04 06:40:39;;;;;;;0.00;0.00;;;;;;;11.03;56.33;98466.50;4462397;32;34610;-81
2024/01/04 06:43:09;;;;;;;0.10;0.10;;;;;;;10.84;56.26;98469.53;4469807;32;33884;-81
2024/01/04 06:45:37;;;;;;;0.22;0.22;;;;;;;10.80;56.43;98485.66;4450137;32;33107;-81
2024/01/04 06:48:08;;;;;;;0.13;0.13;;;;;;;11.05;55.75;98479.59;4469153;32;33213;-81
2024/01/04 06:50:36;;;;;;;0.17;0.17;;;;;;;11.36;54.82;98475.75;4457361;32;33180;-81
2024/01/04 06:53:04;;;;;;;0.60;0.35;;;;;;;11.23;54.82;98483.66;4455828;32;34177;-81
2024/01/04 06:55:31;;;;;;;5.05;0.70;;;;;;;11.26;55.00;98488.75;4451427;32;34443;-81
2024/01/04 06:58:00;;;;;;;0.73;0.50;;;;;;;11.41;54.40;98489.50;4443045;32;31284;-82
2024/01/04 07:00:27;;;;;;;0.03;0.03;;;;;;;11.40;54.31;98501.88;4444712;32;33432;-81
2024/01/04 07:02:56;;;;;;;1.00;1.00;;;;;;;11.28;54.44;98505.34;4462852;32;32842;-80
2024/01/04 07:05:23;;;;;;;0.00;0.00;;;;;;;10.92;55.71;98501.56;4438931;32;33081;-81
2024/01/04 07:07:51;;;;;;;0.28;0.28;;;;;;;10.75;56.10;98500.00;4454054;32;31802;-81
2024/01/04 07:10:19;;;;;;;0.00;0.00;;;;;;;10.65;56.87;98501.56;4450009;32;33374;-81
2024/01/04 07:12:47;;;;;;;0.00;0.00;;;;;;;10.70;56.74;98510.03;4459456;32;33357;-81
2024/01/04 07:15:15;;;;;;;0.25;0.25;;;;;;;10.68;56.74;98511.06;4464766;32;33546;-82
2024/01/04 07:17:42;;;;;;;0.20;0.17;;;;;;;10.73;56.30;98515.13;4449017;32;34244;-82
2024/01/04 07:20:11;;;;;;;0.20;0.20;;;;;;;10.42;57.44;98510.94;4451670;32;34225;-80
2024/01/04 07:22:38;;;;;;;0.73;0.73;;;;;;;10.44;57.52;98501.16;4452671;32;33620;-80
2024/01/04 07:25:06;;;;;;;0.20;0.20;;;;;;;10.41;57.57;98503.97;4452687;32;32853;-80
2024/01/04 07:27:34;;;;;;;0.62;0.62;;;;;;;10.63;56.61;98506.06;4449638;32;32206;-80
2024/01/04 07:30:03;;;;;;;0.00;0.00;;;;;;;10.71;56.58;98505.59;4450311;32;33957;-81
2024/01/04 07:32:31;;;;;;;0.10;0.10;;;;;;;10.35;57.41;98499.09;4461175;32;31975;-81
2024/01/04 07:34:59;;;;;;;0.28;0.28;;;;;;;10.21;57.91;98496.47;4453399;32;33764;-81
2024/01/04 07:37:43;;;;;;;0.28;0.28;;;;;;;10.31;57.99;98496.75;4462183;32;33356;-81
2024/01/04 07:40:11;;;;;;;0.00;0.00;;;;;;;10.33;57.98;98500.97;4460965;32;34412;-81
2024/01/04 07:42:40;;;;;;;0.20;0.20;;;;;;;10.44;57.88;98498.53;4450802;32;33194;-81
2024/01/04 07:45:09;;;;;;;0.47;0.47;;;;;;;10.28;58.08;98496.94;4468303;32;33621;-81
2024/01/04 07:47:36;;;;;;;0.00;0.00;;;;;;;10.68;57.07;98501.38;4451804;32;32862;-81
2024/01/04 07:50:05;;;;;;;0.40;0.40;;;;;;;10.81;55.79;98496.12;4441217;32;32844;-79
2024/01/04 07:52:33;;;;;;;0.00;0.00;;;;;;;11.03;54.83;98491.13;4453075;32;32244;-80
2024/01/04 07:55:01;;;;;;;0.00;0.00;;;;;;;11.14;54.41;98492.19;4446568;32;33890;-80
2024/01/04 07:57:45;;;;;;;0.08;0.08;;;;;;;11.17;53.53;98492.00;4436472;32;32946;-80
2024/01/04 08:00:16;;;;;;;0.00;0.00;;;;;;;11.38;52.93;98490.53;4453469;32;32452;-80
2024/01/04 08:02:44;;;;;;;0.00;0.00;;;;;;;11.55;52.57;98481.47;4451892;32;34864;-80
2024/01/04 08:05:13;;;;;;;0.00;0.00;;;;;;;11.59;52.75;98482.13;4435006;32;32334;-80
2024/01/04 08:07:43;;;;;;;0.98;0.40;;;;;;;11.83;52.09;98479.59;4452545;32;31125;-80
2024/01/04 08:10:13;;;;;;;0.00;0.00;;;;;;;12.12;50.98;98474.91;4458932;32;33589;-81
2024/01/04 08:12:41;;;;;;;0.70;0.25;;;;;;;11.95;51.72;98478.72;4447223;32;33525;-80
2024/01/04 08:15:10;;;;;;;0.10;0.10;;;;;;;12.03;51.26;98476.41;4447127;32;33515;-80
2024/01/04 08:17:38;;;;;;;0.08;0.08;;;;;;;12.37;50.06;98480.12;4452783;32;32574;-80
2024/01/04 08:20:07;;;;;;;0.10;0.10;;;;;;;12.28;50.90;98480.78;4441527;32;33561;-80
2024/01/04 08:22:35;;;;;;;0.00;0.00;;;;;;;12.51;51.01;98489.72;4451450;32;33765;-80
2024/01/04 08:25:04;;;;;;;0.00;0.00;;;;;;;12.83;49.59;98484.72;4462171;32;33866;-80
2024/01/04 08:27:32;;;;;;;1.08;0.47;;;;;;;12.81;48.80;98486.63;4462599;32;33445;-81
2024/01/04 08:30:00;;;;;;;0.10;0.10;;;;;;;12.90;47.99;98485.94;4464333;32;33733;-80
2024/01/04 08:32:29;;;;;;;0.22;0.22;;;;;;;12.77;49.11;98477.22;4436896;32;33358;-81
2024/01/04 08:34:56;;;;;;;0.20;0.20;;;;;;;13.18;47.23;98484.72;4437317;32;32634;-81
2024/01/04 08:37:31;;;;;;;0.00;0.00;;;;;;;13.17;48.11;98487.50;4450942;32;29985;-81
2024/01/04 08:39:59;;;;;;;0.00;0.00;;;;;;;13.29;46.61;98490.13;4449635;32;34336;-80
2024/01/04 08:42:27;;;;;;;0.00;0.00;;;;;;;13.26;46.85;98482.41;4449946;32;32948;-82
2024/01/04 08:44:55;;;;;;;0.10;0.10;;;;;;;13.19;46.38;98493.53;4439765;32;33103;-81
2024/01/04 08:47:23;;;;;;;0.05;0.05;;;;;;;13.27;46.17;98492.03;4460092;32;34226;-82
2024/01/04 08:49:52;;;;;;;0.00;0.00;;;;;;;13.30;46.83;98496.28;4463730;32;33265;-81
2024/01/04 08:52:20;;;;;;;0.00;0.00;;;;;;;13.07;46.18;98501.44;4436572;32;33079;-81
2024/01/04 08:54:49;;;;;;;0.00;0.00;;;;;;;13.20;46.11;98497.91;4447480;32;33141;-81
2024/01/04 08:57:17;;;;;;;0.00;0.00;;;;;;;13.29;46.22;98505.16;4447994;32;32648;-81
2024/01/04 08:59:45;;;;;;;0.20;0.10;;;;;;;13.37;46.93;98508.09;4448381;32;33390;-81
2024/01/04 09:02:13;;;;;;;5.45;0.32;;;;;;;13.33;45.69;98504.81;4467164;32;31966;-81
2024/01/04 09:04:40;;;;;;;0.00;0.00;;;;;;;13.53;45.74;98513.06;4460154;32;36122;-81
2024/01/04 09:07:08;;;;;;;0.40;0.30;;;;;;;13.73;45.61;98504.44;4449528;32;32295;-81
2024/01/04 09:09:36;;;;;;;0.62;0.62;;;;;;;14.05;44.56;98506.38;4451673;32;33285;-81
2024/01/04 09:12:04;;;;;;;0.00;0.00;;;;;;;13.83;45.25;98510.72;4444106;32;33438;-81
2024/01/04 09:14:32;;;;;;;0.05;0.05;;;;;;;13.98;44.00;98508.69;4451405;32;34472;-80
2024/01/04 09:17:00;;;;;;;0.00;0.00;;;;;;;13.79;43.91;98516.38;4451136;32;31610;-80
2024/01/04 09:19:28;;;;;;;0.00;0.00;;;;;;;13.83;43.28;98508.06;4466310;32;34115;-80
2024/01/04 09:21:56;;;;;;;1.02;0.13;;;;;;;13.85;43.28;98515.91;4449571;32;33560;-80
2024/01/04 09:24:24;;;;;;;0.05;0.05;;;;;;;13.93;42.93;98521.47;4446800;32;32438;-80
2024/01/04 09:26:52;;;;;;;0.00;0.00;;;;;;;14.03;43.77;98521.59;4464834;32;33273;-81
2024/01/04 09:29:20;;;;;;;1.25;0.95;;;;;;;13.41;43.73;98524.63;4438859;32;33826;-80
2024/01/04 09:31:48;;;;;;;0.35;0.35;;;;;;;13.66;43.51;98508.50;4444307;32;32823;-81
2024/01/04 09:34:15;;;;;;;0.03;0.03;;;;;;;14.00;42.35;98511.19;4463532;32;33067;-81
2024/01/04 09:36:43;;;;;;;0.03;0.03;;;;;;;14.24;42.85;98508.41;4447888;32;31604;-80
2024/01/04 09:39:17;;;;;;;0.37;0.37;;;;;;;13.98;42.64;98507.84;4449492;32;34494;-80
2024/01/04 09:41:47;;;;;;;0.35;0.35;;;;;;;14.30;42.33;98502.66;4435436;32;34165;-80
2024/01/04 09:44:15;;;;;;;0.00;0.00;;;;;;;14.18;42.43;98498.28;4438482;32;33063;-81
2024/01/04 09:46:43;;;;;;;0.10;0.10;;;;;;;14.24;43.71;98503.09;4449557;32;33836;-80
2024/01/04 09:49:13;;;;;;;0.00;0.00;;;;;;;14.28;42.71;98501.91;4460170;32;32769;-81
2024/01/04 09:51:41;;;;;;;0.00;0.00;;;;;;;14.29;42.13;98503.59;4451017;32;32510;-80
2024/01/04 09:54:10;;;;;;;0.13;0.13;;;;;;;13.78;42.20;98491.66;4460536;32;33142;-80
2024/01/04 09:56:42;;;;;;;3.47;0.55;;;;;;;14.19;41.78;98490.19;4448452;32;32323;-80
2024/01/04 09:59:11;;;;;;;0.35;0.22;;;;;;;14.20;41.64;98499.87;4436827;32;32429;-80
2024/01/04 10:01:39;;;;;;;0.50;0.50;;;;;;;14.56;41.34;98509.38;4473745;32;33849;-81
2024/01/04 10:04:11;;;;;;;0.10;0.10;;;;;;;14.68;41.80;98512.03;4449138;32;32945;-80
2024/01/04 10:06:44;;;;;;;0.00;0.00;;;;;;;14.47;41.51;98507.44;4450645;32;33073;-81
2024/01/04 10:09:18;;;;;;;0.30;0.30;;;;;;;14.58;40.51;98519.91;4447646;32;32333;-81
2024/01/04 10:11:56;;;;;;;0.57;0.30;;;;;;;14.83;39.93;98511.62;4467875;32;33879;-81
2024/01/04 10:14:25;;;;;;;0.80;0.43;;;;;;;15.33;39.48;98519.03;4447605;32;34106;-80
2024/01/04 10:16:56;;;;;;;0.00;0.00;;;;;;;15.27;39.30;98517.75;4462400;32;33394;-81
2024/01/04 10:19:24;;;;;;;0.00;0.00;;;;;;;15.41;40.20;98511.28;4460415;32;34392;-80
2024/01/04 10:21:52;;;;;;;0.10;0.10;;;;;;;15.29;39.58;98520.28;4461688;32;34099;-80
2024/01/04 10:24:21;;;;;;;0.00;0.00;;;;;;;15.58;38.25;98531.16;4447470;32;33554;-80
2024/01/04 10:27:00;;;;;;;0.00;0.00;;;;;;;15.55;38.21;98529.56;4447226;32;31645;-80
2024/01/04 10:29:29;;;;;;;0.00;0.00;;;;;;;15.54;38.19;98533.22;4459404;32;33634;-80
2024/01/04 10:32:03;;;;;;;0.30;0.30;;;;;;;15.46;39.38;98529.50;4438368;32;32869;-80
2024/01/04 10:34:35;;;;;;;0.00;0.00;;;;;;;15.54;39.65;98538.53;4450743;32;33951;-80
2024/01/04 10:37:11;;;;;;;0.47;0.47;;;;;;;15.36;40.95;98527.63;4458956;32;33441;-80
2024/01/04 10:39:41;;;;;;;0.00;0.00;;;;;;;15.35;39.45;98527.75;4466135;32;33829;-80
2024/01/04 10:42:09;;;;;;;0.00;0.00;;;;;;;15.04;38.84;98530.28;4459799;32;33989;-80
2024/01/04 10:44:38;;;;;;;0.00;0.00;;;;;;;14.82;39.16;98522.41;4452287;32;33115;-80
2024/01/04 10:47:09;;;;;;;0.00;0.00;;;;;;;15.09;39.70;98525.41;4450523;32;32788;-81
2024/01/04 10:49:40;;;;;;;0.00;0.00;;;;;;;14.66;39.77;98529.91;4440837;32;33032;-80
2024/01/04 10:52:14;;;;;;;0.00;0.00;;;;;;;14.63;40.11;98519.53;4477662;31;34688;-81
2024/01/04 10:54:42;;;;;;;0.00;0.00;;;;;;;14.66;41.00;98520.13;4466486;32;33929;-80
2024/01/04 10:57:12;;;;;;;0.00;0.00;;;;;;;14.74;41.18;98522.16;4450454;32;33499;-81
2024/01/04 10:59:43;;;;;;;0.28;0.28;;;;;;;14.95;40.42;98515.09;4453215;32;33129;-80
2024/01/04 11:02:13;;;;;;;0.08;0.08;;;;;;;14.65;40.13;98514.94;4438716;32;32880;-81
2024/01/04 11:04:41;;;;;;;0.15;0.15;;;;;;;14.37;40.78;98510.97;4450060;32;32592;-80
2024/01/04 11:07:09;;;;;;;0.00;0.00;;;;;;;14.48;40.26;98505.66;4446986;32;32484;-80
2024/01/04 11:09:38;;;;;;;0.00;0.00;;;;;;;14.87;39.42;98496.28;4435973;32;34171;-81
2024/01/04 11:12:05;;;;;;;0.13;0.10;;;;;;;15.12;39.73;98495.09;4462210;32;33387;-80
2024/01/04 11:14:33;;;;;;;0.00;0.00;;;;;;;15.21;38.69;98496.16;4448611;32;33675;-80
2024/01/04 11:17:19;;;;;;;0.00;0.00;;;;;;;15.19;40.81;98496.28;4464936;32;32620;-80
2024/01/04 11:20:37;;;;;;;0.30;0.30;;;;;;;15.08;39.53;98497.16;4460614;32;33523;-80
2024/01/04 11:23:20;;;;;;;0.68;0.32;;;;;;;14.75;40.48;98505.25;4454746;32;33372;-80
2024/01/04 11:26:33;;;;;;;0.45;0.37;;;;;;;14.87;40.02;98504.25;4466568;32;33411;-80
2024/01/04 11:29:06;;;;;;;;;;;;;;;14.97;40.29;98502.53;4433726;32;32727;-80
2024/01/04 11:31:41;;;;;;;0.00;0.00;;;;;;;14.84;39.62;98500.03;4455703;32;34912;-80
2024/01/04 11:34:16;;;;;;;0.00;0.00;;;;;;;14.82;39.53;98509.09;4464908;32;33506;-80
2024/01/04 11:36:44;;;;;;;0.00;0.00;;;;;;;14.73;39.66;98504.53;4450721;32;33591;-80
2024/01/04 11:39:12;;;;;;;0.20;0.20;;;;;;;14.68;39.92;98506.72;4468567;32;31353;-80
2024/01/04 11:41:40;;;;;;;0.00;0.00;;;;;;;14.57;40.30;98511.09;4456373;32;33889;-80